createdAt,value
2019-02-11T00:00:25.690Z,99574.45
2019-02-11T00:02:57.394Z,99578.27
2019-02-11T00:05:29.099Z,99580.33
2019-02-11T00:08:00.751Z,99578.09
2019-02-11T00:10:32.357Z,99584.16
2019-02-11T00:13:10.500Z,99594.28
2019-02-11T00:15:37.540Z,99606.02
2019-02-11T00:18:09.199Z,99618.27
2019-02-11T00:20:40.841Z,99621.41
2019-02-11T00:23:12.496Z,99619.30
2019-02-11T00:25:45.127Z,99623.36
2019-02-11T00:28:16.807Z,99625.21
2019-02-11T00:30:48.656Z,99628.41
2019-02-11T00:33:21.837Z,99628.91
2019-02-11T00:35:54.514Z,99632.82
2019-02-11T00:38:29.910Z,99640.64
2019-02-11T00:41:01.546Z,99643.34
2019-02-11T00:43:33.131Z,99648.92
2019-02-11T00:46:04.849Z,99652.33
2019-02-11T00:48:36.463Z,99653.14
2019-02-11T00:51:09.913Z,99647.84
2019-02-11T00:53:41.519Z,99660.83
2019-02-11T00:56:13.139Z,99661.73
2019-02-11T00:58:45.255Z,99661.02
2019-02-11T01:01:17.025Z,99668.12
2019-02-11T01:03:48.651Z,99667.81
2019-02-11T01:06:20.237Z,99669.70
2019-02-11T01:08:55.274Z,99671.59
2019-02-11T01:11:26.883Z,99662.68
2019-02-11T01:13:58.531Z,99655.31
2019-02-11T01:16:30.234Z,99664.48
2019-02-11T01:19:01.867Z,99658.09
2019-02-11T01:21:33.480Z,99663.36
2019-02-11T01:24:05.194Z,99661.33
2019-02-11T01:26:37.040Z,99664.56
2019-02-11T01:29:08.749Z,99658.66
2019-02-11T01:31:40.673Z,99662.80
2019-02-11T01:34:12.326Z,99664.31
2019-02-11T01:36:43.961Z,99667.50
2019-02-11T01:39:15.574Z,99672.87
2019-02-11T01:41:47.198Z,99685.95
2019-02-11T01:44:18.910Z,99678.63
2019-02-11T01:46:50.634Z,99694.22
2019-02-11T01:49:22.330Z,99700.69
2019-02-11T01:51:53.919Z,99698.94
2019-02-11T01:54:25.524Z,99701.14
2019-02-11T01:56:57.141Z,99697.28
2019-02-11T01:59:29.420Z,99703.46
2019-02-11T02:02:01.027Z,99707.05
2019-02-11T02:04:34.355Z,99702.81
2019-02-11T02:07:05.944Z,99704.20
2019-02-11T02:09:37.607Z,99709.09
2019-02-11T02:12:10.230Z,99712.27
2019-02-11T02:14:41.870Z,99724.92
2019-02-11T02:17:13.641Z,99729.33
2019-02-11T02:24:49.655Z,99738.67
2019-02-11T02:27:21.822Z,99748.69
2019-02-11T02:29:53.532Z,99755.61
2019-02-11T02:32:25.225Z,99756.91
2019-02-11T02:34:56.947Z,99764.66
2019-02-11T02:37:28.854Z,99771.61
2019-02-11T02:40:00.779Z,99771.16
2019-02-11T02:42:33.839Z,99771.16
2019-02-11T02:45:06.135Z,99774.63
2019-02-11T02:47:37.847Z,99777.23
2019-02-11T02:50:10.297Z,99779.83
2019-02-11T02:52:41.874Z,99783.81
2019-02-11T02:55:13.492Z,99785.94
2019-02-11T02:57:45.206Z,99796.88
2019-02-11T03:00:16.846Z,99792.45
2019-02-11T03:02:48.441Z,99804.58
2019-02-11T03:05:20.458Z,99808.08
2019-02-11T03:07:52.110Z,99811.16
2019-02-11T03:10:23.794Z,99819.88
2019-02-11T03:12:55.404Z,99815.08
2019-02-11T03:15:26.972Z,99825.09
2019-02-11T03:17:58.816Z,99831.19
2019-02-11T03:20:30.509Z,99831.75
2019-02-11T03:23:03.399Z,99840.50
2019-02-11T03:25:35.071Z,99848.31
2019-02-11T03:28:06.771Z,99848.80
2019-02-11T03:30:38.365Z,99855.78
2019-02-11T03:33:09.964Z,99856.72
2019-02-11T03:35:41.560Z,99869.73
2019-02-11T03:38:13.300Z,99881.05
2019-02-11T03:40:45.306Z,99874.55
2019-02-11T03:43:16.985Z,99886.27
2019-02-11T03:45:48.585Z,99889.31
2019-02-11T03:48:20.214Z,99896.23
2019-02-11T03:50:52.010Z,99912.71
2019-02-11T03:53:23.711Z,99905.34
2019-02-11T03:55:55.283Z,99917.06
2019-02-11T03:58:27.278Z,99925.73
2019-02-11T04:00:59.956Z,99922.69
2019-02-11T04:03:31.590Z,99925.29
2019-02-11T04:06:03.155Z,99923.02
2019-02-11T04:08:35.111Z,99940.81
2019-02-11T04:11:06.698Z,99941.22
2019-02-11T04:13:38.454Z,99944.23
2019-02-11T04:16:10.038Z,99943.75
2019-02-11T04:18:41.621Z,99953.73
2019-02-11T04:21:13.247Z,99955.92
2019-02-11T04:23:45.057Z,99954.17
2019-02-11T04:26:16.613Z,99963.73
2019-02-11T04:28:48.283Z,99968.95
2019-02-11T04:31:19.895Z,99977.62
2019-02-11T04:33:51.571Z,99976.80
2019-02-11T04:36:23.161Z,99980.67
2019-02-11T04:38:54.983Z,99980.67
2019-02-11T04:41:26.639Z,99985.87
2019-02-11T04:43:58.307Z,99992.32
2019-02-11T04:46:29.931Z,100001.95
2019-02-11T04:49:01.610Z,99998.05
2019-02-11T04:51:33.349Z,99998.49
2019-02-11T04:54:06.488Z,100005.89
2019-02-11T04:56:38.196Z,100014.16
2019-02-11T04:59:09.974Z,100022.41
2019-02-11T05:01:41.573Z,100024.57
2019-02-11T05:04:13.195Z,100029.37
2019-02-11T05:06:44.917Z,100031.59
2019-02-11T05:09:16.565Z,100037.70
2019-02-11T05:11:48.361Z,100032.08
2019-02-11T05:14:21.918Z,100032.97
2019-02-11T05:16:53.686Z,100043.03
2019-02-11T05:19:25.377Z,100047.83
2019-02-11T05:21:57.103Z,100044.37
2019-02-11T05:24:28.843Z,100057.87
2019-02-11T05:27:00.651Z,100066.98
2019-02-11T05:29:32.265Z,100062.67
2019-02-11T05:32:04.287Z,100066.55
2019-02-11T05:34:36.040Z,100071.30
2019-02-11T05:37:08.669Z,100072.61
2019-02-11T05:39:40.297Z,100073.05
2019-02-11T05:42:12.128Z,100081.75
2019-02-11T05:44:53.184Z,100083.91
2019-02-11T05:47:17.507Z,100090.39
2019-02-11T05:49:49.122Z,100099.92
2019-02-11T05:52:22.432Z,100110.78
2019-02-11T05:54:54.205Z,100115.55
2019-02-11T05:57:26.981Z,100123.81
2019-02-11T05:59:58.772Z,100132.45
2019-02-11T06:02:30.358Z,100131.59
2019-02-11T06:05:02.067Z,100146.36
2019-02-11T06:07:33.683Z,100149.37
2019-02-11T06:10:05.662Z,100158.52
2019-02-11T06:12:38.965Z,100168.05
2019-02-11T06:15:12.073Z,100166.34
2019-02-11T06:17:43.827Z,100171.12
2019-02-11T06:20:15.523Z,100181.97
2019-02-11T06:22:47.172Z,100184.13
2019-02-11T06:25:18.963Z,100187.52
2019-02-11T06:27:50.848Z,100191.88
2019-02-11T06:30:22.485Z,100198.36
2019-02-11T06:32:54.142Z,100204.45
2019-02-11T06:35:25.827Z,100220.50
2019-02-11T06:37:57.469Z,100215.73
2019-02-11T06:40:29.210Z,100229.58
2019-02-11T06:43:00.833Z,100233.52
2019-02-11T06:45:32.638Z,100246.12
2019-02-11T06:48:04.319Z,100253.55
2019-02-11T06:50:35.995Z,100261.81
2019-02-11T06:53:07.716Z,100268.80
2019-02-11T06:55:39.454Z,100285.28
2019-02-11T06:58:11.424Z,100284.87
2019-02-11T07:00:43.914Z,100294.42
2019-02-11T07:03:15.539Z,100304.41
2019-02-11T07:05:47.157Z,100307.00
2019-02-11T07:08:18.884Z,100322.16
2019-02-11T07:10:55.703Z,100333.00
2019-02-11T07:13:24.181Z,100338.20
2019-02-11T07:15:55.980Z,100346.46
2019-02-11T07:18:27.664Z,100346.91
2019-02-11T07:20:59.722Z,100364.25
2019-02-11T07:23:31.316Z,100365.14
2019-02-11T07:26:03.391Z,100367.74
2019-02-11T07:30:55.525Z,100373.28
2019-02-11T07:33:27.183Z,100387.72
2019-02-11T07:35:59.303Z,100389.88
2019-02-11T07:38:30.969Z,100397.28
2019-02-11T07:41:02.978Z,100407.23
2019-02-11T07:43:50.633Z,100408.48
2019-02-11T07:46:26.457Z,100420.25
2019-02-11T07:48:58.170Z,100429.39
2019-02-11T07:51:29.882Z,100440.67
2019-02-11T07:54:01.472Z,100440.17
2019-02-11T07:56:33.182Z,100454.06
2019-02-11T07:59:05.021Z,100448.43
2019-02-11T08:01:36.882Z,100457.08
2019-02-11T08:04:08.483Z,100462.69
2019-02-11T08:06:40.373Z,100469.14
2019-02-11T08:09:13.225Z,100466.08
2019-02-11T08:11:44.899Z,100470.32
2019-02-11T08:14:16.790Z,100478.48
2019-02-11T08:16:49.044Z,100474.97
2019-02-11T08:19:20.679Z,100484.86
2019-02-11T08:21:52.564Z,100493.09
2019-02-11T08:24:24.567Z,100499.06
2019-02-11T08:26:59.435Z,100500.77
2019-02-11T08:29:31.611Z,100498.08
2019-02-11T08:32:03.490Z,100508.40
2019-02-11T08:34:35.147Z,100513.48
2019-02-11T08:37:08.121Z,100515.54
2019-02-11T08:39:41.198Z,100520.62
2019-02-11T08:42:14.069Z,100517.44
2019-02-11T08:44:45.731Z,100513.86
2019-02-11T08:47:19.378Z,100519.41
2019-02-11T08:49:50.928Z,100525.84
2019-02-11T08:52:23.989Z,100534.50
2019-02-11T08:54:55.906Z,100534.50
2019-02-11T08:57:27.556Z,100544.85
2019-02-11T09:00:01.883Z,100550.44
2019-02-11T09:02:34.254Z,100546.41
2019-02-11T09:05:07.782Z,100559.67
2019-02-11T09:07:39.502Z,100563.89
2019-02-11T09:10:11.845Z,100564.11
2019-02-11T09:12:43.482Z,100568.33
2019-02-11T09:15:15.250Z,100565.63
2019-02-11T09:17:47.048Z,100577.17
2019-02-11T09:20:18.703Z,100582.25
2019-02-11T09:22:50.314Z,100585.63
2019-02-11T09:25:22.095Z,100582.11
2019-02-11T09:27:53.707Z,100593.34
2019-02-11T09:30:25.420Z,100593.34
2019-02-11T09:32:57.145Z,100598.55
2019-02-11T09:35:40.603Z,100610.31
2019-02-11T09:38:12.260Z,100608.15
2019-02-11T09:40:44.035Z,100610.41
2019-02-11T09:43:15.667Z,100615.80
2019-02-11T09:45:47.547Z,100619.50
2019-02-11T09:48:19.170Z,100623.63
2019-02-11T09:50:53.117Z,100625.55
2019-02-11T09:53:24.741Z,100634.29
2019-02-11T09:55:56.709Z,100636.84
2019-02-11T09:58:28.484Z,100641.06
2019-02-11T10:01:00.652Z,100657.50
2019-02-11T10:03:32.317Z,100661.78
2019-02-11T10:06:04.043Z,100667.36
2019-02-11T10:08:35.913Z,100665.09
2019-02-11T10:11:07.950Z,100675.92
2019-02-11T10:13:39.708Z,100685.42
2019-02-11T10:16:12.727Z,100688.86
2019-02-11T10:18:44.460Z,100688.89
2019-02-11T10:21:16.210Z,100703.25
2019-02-11T10:23:47.847Z,100704.08
2019-02-11T10:26:19.634Z,100706.61
2019-02-11T10:28:51.415Z,100706.89
2019-02-11T10:31:23.074Z,100714.92
2019-02-11T10:33:54.803Z,100723.49
2019-02-11T10:36:26.675Z,100731.66
2019-02-11T10:38:58.515Z,100725.02
2019-02-11T10:41:30.297Z,100726.20
2019-02-11T10:44:02.129Z,100732.59
2019-02-11T10:46:33.899Z,100732.95
2019-02-11T10:49:05.540Z,100729.98
2019-02-11T10:51:37.510Z,100742.27
2019-02-11T10:54:09.177Z,100745.83
2019-02-11T10:56:41.048Z,100749.41
2019-02-11T10:59:13.084Z,100754.30
2019-02-11T11:01:45.086Z,100754.75
2019-02-11T11:04:16.718Z,100762.47
2019-02-11T11:06:48.495Z,100766.25
2019-02-11T11:09:20.242Z,100777.84
2019-02-11T11:11:51.977Z,100777.30
2019-02-11T11:14:23.879Z,100782.91
2019-02-11T11:16:55.498Z,100780.80
2019-02-11T11:19:27.171Z,100792.11
2019-02-11T11:21:58.917Z,100793.88
2019-02-11T11:24:30.584Z,100789.55
2019-02-11T11:27:02.270Z,100788.69
2019-02-11T11:29:34.017Z,100786.07
2019-02-11T11:32:05.788Z,100787.74
2019-02-11T11:34:37.439Z,100789.49
2019-02-11T11:37:09.185Z,100801.17
2019-02-11T11:39:40.838Z,100801.14
2019-02-11T11:42:12.752Z,100809.31
2019-02-11T11:44:44.784Z,100816.59
2019-02-11T11:47:16.714Z,100823.13
2019-02-11T11:49:48.386Z,100825.77
2019-02-11T11:52:20.050Z,100821.83
2019-02-11T11:54:53.523Z,100824.02
2019-02-11T11:57:25.434Z,100826.13
2019-02-11T12:00:16.368Z,100832.11
2019-02-11T12:03:07.080Z,100830.25
2019-02-11T12:05:39.007Z,100830.25
2019-02-11T12:08:10.785Z,100835.48
2019-02-11T12:10:42.470Z,100841.15
2019-02-11T12:13:22.657Z,100842.37
2019-02-11T12:15:52.269Z,100832.77
2019-02-11T12:18:23.998Z,100829.74
2019-02-11T12:20:55.685Z,100840.70
2019-02-11T12:23:28.044Z,100832.89
2019-02-11T12:26:00.316Z,100829.80
2019-02-11T12:28:32.327Z,100837.56
2019-02-11T12:31:04.182Z,100833.50
2019-02-11T12:33:35.851Z,100841.20
2019-02-11T12:36:09.291Z,100847.50
2019-02-11T12:38:41.132Z,100851.70
2019-02-11T12:41:13.096Z,100849.73
2019-02-11T12:43:46.283Z,100853.41
2019-02-11T12:46:18.156Z,100851.53
2019-02-11T12:48:49.744Z,100854.00
2019-02-11T12:51:21.457Z,100857.00
2019-02-11T12:53:53.240Z,100857.45
2019-02-11T12:56:24.996Z,100864.89
2019-02-11T12:58:57.061Z,100862.17
2019-02-11T13:01:29.150Z,100855.58
2019-02-11T13:04:00.833Z,100855.92
2019-02-11T13:06:32.618Z,100857.30
2019-02-11T13:09:05.652Z,100859.50
2019-02-11T13:11:37.295Z,100864.85
2019-02-11T13:14:09.140Z,100869.67
2019-02-11T13:16:41.122Z,100880.20
2019-02-11T13:19:12.794Z,100868.96
2019-02-11T13:21:44.517Z,100877.28
2019-02-11T13:24:17.718Z,100880.77
2019-02-11T13:26:49.468Z,100887.28
2019-02-11T13:29:22.054Z,100891.67
2019-02-11T13:31:53.948Z,100895.16
2019-02-11T13:34:25.870Z,100893.81
2019-02-11T13:36:57.562Z,100897.72
2019-02-11T13:39:29.511Z,100894.56
2019-02-11T13:42:01.251Z,100904.97
2019-02-11T13:44:33.139Z,100912.82
2019-02-11T13:47:05.026Z,100918.05
2019-02-11T13:49:37.168Z,100925.06
2019-02-11T13:52:09.146Z,100931.61
2019-02-11T13:54:40.988Z,100929.47
2019-02-11T13:57:12.865Z,100935.15
2019-02-11T13:59:43.712Z,100934.34
2019-02-11T14:02:13.046Z,100936.09
2019-02-11T14:04:47.256Z,100936.98
2019-02-11T14:07:19.000Z,100935.33
2019-02-11T14:09:50.758Z,100943.20
2019-02-11T14:12:22.804Z,100927.97
2019-02-11T14:14:54.654Z,100939.70
2019-02-11T14:17:26.356Z,100947.55
2019-02-11T14:20:03.614Z,100949.30
2019-02-11T14:22:35.387Z,100961.88
2019-02-11T14:25:07.429Z,100962.23
2019-02-11T14:27:39.203Z,100965.18
2019-02-11T14:30:12.473Z,100972.14
2019-02-11T14:32:44.524Z,100980.44
2019-02-11T14:35:16.938Z,100985.25
2019-02-11T14:37:48.945Z,100990.91
2019-02-11T14:40:20.764Z,101006.10
2019-02-11T14:42:52.769Z,101009.53
2019-02-11T14:45:24.683Z,101022.92
2019-02-11T14:47:56.391Z,101018.02
2019-02-11T14:50:28.267Z,101022.75
2019-02-11T14:53:00.012Z,101023.67
2019-02-11T14:55:32.207Z,101026.79
2019-02-11T14:58:04.090Z,101039.20
2019-02-11T15:00:35.282Z,101052.12
2019-02-11T15:03:04.573Z,101061.06
2019-02-11T15:05:36.702Z,101079.51
2019-02-11T15:08:08.460Z,101095.06
2019-02-11T15:10:40.571Z,101097.16
2019-02-11T15:13:12.261Z,101090.66
2019-02-11T15:15:44.152Z,101087.92
2019-02-11T15:18:15.861Z,101096.84
2019-02-11T15:20:47.620Z,101103.54
2019-02-11T15:23:19.291Z,101101.09
2019-02-11T15:25:51.147Z,101112.56
2019-02-11T15:28:23.387Z,101109.27
2019-02-11T15:30:55.267Z,101110.73
2019-02-11T15:33:27.324Z,101104.30
2019-02-11T15:35:59.595Z,101096.11
2019-02-11T15:38:31.675Z,101090.08
2019-02-11T15:41:03.407Z,101102.20
2019-02-11T15:43:35.456Z,101103.52
2019-02-11T15:46:07.391Z,101097.39
2019-02-11T15:48:43.130Z,101093.84
2019-02-11T15:51:12.965Z,101095.95
2019-02-11T15:53:44.753Z,101110.72
2019-02-11T15:56:16.561Z,101119.36
2019-02-11T15:58:48.632Z,101125.00
2019-02-11T16:01:20.613Z,101128.42
2019-02-11T16:03:52.727Z,101137.53
2019-02-11T16:06:24.422Z,101126.23
2019-02-11T16:09:04.158Z,101131.46
2019-02-11T16:11:29.813Z,101144.56
2019-02-11T16:14:02.118Z,101153.71
2019-02-11T16:16:34.059Z,101156.34
2019-02-11T16:19:06.089Z,101158.08
2019-02-11T16:21:38.073Z,101155.95
2019-02-11T16:24:09.899Z,101162.49
2019-02-11T16:26:41.632Z,101172.06
2019-02-11T16:29:13.713Z,101179.03
2019-02-11T16:31:45.622Z,101175.57
2019-02-11T16:34:17.336Z,101179.05
2019-02-11T16:36:49.375Z,101178.61
2019-02-11T16:39:21.353Z,101183.80
2019-02-11T16:41:53.008Z,101191.15
2019-02-11T16:44:24.690Z,101199.41
2019-02-11T16:46:56.636Z,101196.80
2019-02-11T16:49:28.376Z,101205.06
2019-02-11T16:52:00.357Z,101209.86
2019-02-11T16:54:32.053Z,101209.91
2019-02-11T16:57:03.938Z,101204.34
2019-02-11T16:59:36.281Z,101212.62
2019-02-11T17:02:08.163Z,101217.46
2019-02-11T17:04:39.867Z,101229.69
2019-02-11T17:07:12.085Z,101240.56
2019-02-11T17:09:43.807Z,101252.30
2019-02-11T17:12:15.458Z,101246.65
2019-02-11T17:14:48.613Z,101260.09
2019-02-11T17:17:20.604Z,101262.70
2019-02-11T17:19:52.425Z,101265.31
2019-02-11T17:22:24.512Z,101275.31
2019-02-11T17:24:56.264Z,101286.19
2019-02-11T17:27:28.042Z,101282.28
2019-02-11T17:30:02.081Z,101292.70
2019-02-11T17:32:34.102Z,101292.72
2019-02-11T17:35:06.010Z,101302.28
2019-02-11T17:37:37.646Z,101304.02
2019-02-11T17:40:11.821Z,101310.54
2019-02-11T17:42:43.799Z,101306.17
2019-02-11T17:45:19.096Z,101310.95
2019-02-11T17:47:50.849Z,101319.19
2019-02-11T17:50:23.698Z,101325.27
2019-02-11T17:52:56.721Z,101326.56
2019-02-11T17:55:28.422Z,101331.35
2019-02-11T17:58:00.632Z,101337.00
2019-02-11T18:00:38.777Z,101335.26
2019-02-11T18:03:10.482Z,101337.87
2019-02-11T18:05:42.250Z,101341.36
2019-02-11T18:08:14.047Z,101340.92
2019-02-11T18:10:46.953Z,101346.14
2019-02-11T18:13:19.135Z,101342.66
2019-02-11T18:15:50.881Z,101350.05
2019-02-11T18:18:22.776Z,101349.63
2019-02-11T18:20:54.506Z,101351.80
2019-02-11T18:23:26.323Z,101364.46
2019-02-11T18:25:58.069Z,101370.13
2019-02-11T18:28:29.923Z,101371.88
2019-02-11T18:31:03.374Z,101378.88
2019-02-11T18:33:37.614Z,101391.07
2019-02-11T18:36:09.764Z,101388.52
2019-02-11T18:38:41.888Z,101403.38
2019-02-11T18:41:15.663Z,101406.48
2019-02-11T18:43:47.470Z,101409.57
2019-02-11T18:46:19.522Z,101414.41
2019-02-11T18:48:52.656Z,101414.02
2019-02-11T18:51:24.370Z,101423.14
2019-02-11T18:53:56.096Z,101427.05
2019-02-11T18:56:27.856Z,101432.27
2019-02-11T18:58:59.767Z,101444.45
2019-02-11T19:01:31.607Z,101454.88
2019-02-11T19:04:03.814Z,101454.88
2019-02-11T19:06:35.731Z,101456.61
2019-02-11T19:09:14.065Z,101465.31
2019-02-11T19:11:45.813Z,101475.73
2019-02-11T19:14:17.678Z,101491.79
2019-02-11T19:16:49.655Z,101497.87
2019-02-11T19:19:21.410Z,101503.95
2019-02-11T19:21:54.189Z,101509.17
2019-02-11T19:24:27.260Z,101528.70
2019-02-11T19:27:00.197Z,101528.67
2019-02-11T19:29:31.894Z,101562.14
2019-02-11T19:32:03.755Z,101563.48
2019-02-11T19:34:35.598Z,101564.91
2019-02-11T19:37:08.155Z,101558.05
2019-02-11T19:39:40.078Z,101562.46
2019-02-11T19:42:18.828Z,101564.68
2019-02-11T19:44:50.574Z,101567.30
2019-02-11T19:47:22.357Z,101569.92
2019-02-11T19:49:54.322Z,101577.75
2019-02-11T19:52:26.718Z,101575.16
2019-02-11T19:54:58.531Z,101579.09
2019-02-11T19:57:30.360Z,101589.07
2019-02-11T20:00:02.332Z,101593.41
2019-02-11T20:02:36.137Z,101578.21
2019-02-11T20:05:08.939Z,101583.42
2019-02-11T20:07:41.434Z,101582.12
2019-02-11T20:10:14.360Z,101579.52
2019-02-11T20:12:46.102Z,101585.59
2019-02-11T20:15:20.551Z,101593.02
2019-02-11T20:17:52.276Z,101597.79
2019-02-11T20:20:24.543Z,101601.23
2019-02-11T20:22:57.210Z,101604.25
2019-02-11T20:25:29.063Z,101604.70
2019-02-11T20:28:00.737Z,101610.79
2019-02-11T20:30:32.435Z,101619.91
2019-02-11T20:33:07.135Z,101625.12
2019-02-11T20:35:38.946Z,101629.03
2019-02-11T20:38:14.532Z,101636.38
2019-02-11T20:40:46.344Z,101641.17
2019-02-11T20:43:18.277Z,101645.94
2019-02-11T20:45:50.008Z,101650.27
2019-02-11T20:48:21.891Z,101647.22
2019-02-11T20:50:53.713Z,101659.38
2019-02-11T20:53:26.129Z,101659.38
2019-02-11T20:55:58.027Z,101661.97
2019-02-11T20:58:30.116Z,101668.04
2019-02-11T21:01:05.406Z,101654.62
2019-02-11T21:03:37.259Z,101655.48
2019-02-11T21:06:10.128Z,101651.56
2019-02-11T21:08:42.624Z,101650.69
2019-02-11T21:11:15.812Z,101662.42
2019-02-11T21:13:47.521Z,101662.44
2019-02-11T21:16:23.171Z,101655.47
2019-02-11T21:18:54.903Z,101646.81
2019-02-11T21:21:27.157Z,101635.52
2019-02-11T21:23:58.869Z,101636.81
2019-02-11T21:26:31.409Z,101635.95
2019-02-11T21:29:03.047Z,101632.06
2019-02-11T21:31:36.899Z,101634.66
2019-02-11T21:34:08.421Z,101629.87
2019-02-11T21:36:40.733Z,101628.16
2019-02-11T21:39:12.600Z,101620.34
2019-02-11T21:41:44.982Z,101619.02
2019-02-11T21:44:16.790Z,101627.28
2019-02-11T21:46:48.525Z,101636.82
2019-02-11T21:49:20.212Z,101635.52
2019-02-11T21:51:52.158Z,101642.44
2019-02-11T21:54:23.827Z,101645.91
2019-02-11T21:56:56.267Z,101654.59
2019-02-11T21:59:27.945Z,101661.92
2019-02-11T22:02:00.286Z,101669.72
2019-02-11T22:04:31.992Z,101668.84
2019-02-11T22:07:03.860Z,101671.86
2019-02-11T22:09:35.532Z,101684.00
2019-02-11T22:12:09.497Z,101684.42
2019-02-11T22:14:42.353Z,101701.29
2019-02-11T22:17:14.045Z,101708.20
2019-02-11T22:19:45.889Z,101721.20
2019-02-11T22:22:17.854Z,101731.16
2019-02-11T22:24:49.602Z,101739.81
2019-02-11T22:27:23.447Z,101746.73
2019-02-11T22:29:55.353Z,101765.78
2019-02-11T22:32:27.551Z,101777.48
2019-02-11T22:35:00.658Z,101772.30
2019-02-11T22:37:32.347Z,101774.02
2019-02-11T22:40:05.521Z,101775.30
2019-02-11T22:42:39.761Z,101780.93
2019-02-11T22:45:14.779Z,101779.19
2019-02-11T22:47:46.560Z,101770.51
2019-02-11T22:50:18.274Z,101774.41
2019-02-11T22:52:49.887Z,101772.64
2019-02-11T22:55:21.531Z,101782.16
2019-02-11T22:57:53.780Z,101782.56
2019-02-11T23:00:44.584Z,101784.72
2019-02-11T23:03:16.537Z,101780.81
2019-02-11T23:05:48.265Z,101794.69
2019-02-11T23:08:20.023Z,101787.33
2019-02-11T23:10:55.125Z,101783.88
2019-02-11T23:13:27.388Z,101796.92
2019-02-11T23:16:02.157Z,101799.13
2019-02-11T23:18:33.831Z,101801.31
2019-02-11T23:21:05.634Z,101800.88
2019-02-11T23:23:37.260Z,101803.09
2019-02-11T23:26:08.955Z,101804.39
2019-02-11T23:28:40.702Z,101804.81
2019-02-11T23:31:13.179Z,101807.80
2019-02-11T23:33:46.544Z,101812.95
2019-02-11T23:36:18.575Z,101815.09
2019-02-11T23:38:51.224Z,101821.16
2019-02-11T23:41:23.107Z,101830.23
2019-02-11T23:43:54.915Z,101841.95
2019-02-11T23:46:27.204Z,101848.86
2019-02-11T23:48:58.823Z,101851.03
2019-02-11T23:51:31.175Z,101851.45
2019-02-11T23:54:02.844Z,101849.67
2019-02-11T23:56:34.571Z,101857.42
2019-02-11T23:59:06.623Z,101857.38
